Time;durP1;ratioP1;P1;durP2;ratioP2;P2;SDS_P1;SDS_P2;PMS_P1;PMS_P2;Temp;Humidity;BMP_temperature;BMP_pressure;BME280_temperature;BME280_humidity;BME280_pressure;Samples;Min_cycle;Max_cycle;Signal;HPM_P1;HPM_P2
2023/06/29 00:07:53;;;;;;;;;;;17.10;99.90;;;;;;21165210;28;19923;-75
2023/06/29 00:17:54;;;;;;;;;;;17.10;99.90;;;;;;21164368;28;19923;-75
2023/06/29 00:27:54;;;;;;;;;;;17.10;99.90;;;;;;21123407;28;19916;-75
2023/06/29 00:37:55;;;;;;;;;;;16.80;99.90;;;;;;21078097;28;19958;-75
2023/06/29 00:47:57;;;;;;;;;;;16.80;99.90;;;;;;21075999;28;19924;-74
2023/06/29 00:57:57;;;;;;;;;;;16.70;99.90;;;;;;21140981;27;20037;-76
2023/06/29 01:08:03;;;;;;;;;;;16.60;99.90;;;;;;21137781;27;19915;-76
2023/06/29 01:18:04;;;;;;;;;;;16.50;99.90;;;;;;21154772;27;19980;-76
2023/06/29 01:28:09;;;;;;;;;;;16.50;99.90;;;;;;21149272;27;19923;-76
2023/06/29 01:38:20;;;;;;;;;;;16.40;99.90;;;;;;21157371;28;20344;-76
2023/06/29 01:48:21;;;;;;;;;;;16.40;99.90;;;;;;21157274;28;19939;-76
2023/06/29 01:58:21;;;;;;;;;;;16.20;99.90;;;;;;21174791;28;19916;-76
2023/06/29 02:08:22;;;;;;;;;;;15.30;99.90;;;;;;21155355;28;19995;-75
2023/06/29 02:18:23;;;;;;;;;;;14.60;99.90;;;;;;21173441;28;19915;-76
2023/06/29 02:28:23;;;;;;;;;;;14.80;99.90;;;;;;21172938;28;19963;-76
2023/06/29 02:38:27;;;;;;;;;;;15.10;99.90;;;;;;21162304;28;20313;-76
2023/06/29 02:48:27;;;;;;;;;;;14.60;99.90;;;;;;21159817;28;19915;-76
2023/06/29 02:58:28;;;;;;;;;;;14.40;99.90;;;;;;21142404;28;19916;-76
2023/06/29 03:08:31;;;;;;;;;;;14.50;99.90;;;;;;21151200;28;19919;-76
2023/06/29 03:18:32;;;;;;;;;;;15.00;99.90;;;;;;21150866;28;19998;-75
2023/06/29 03:28:33;;;;;;;;;;;15.20;99.90;;;;;;21166786;28;19975;-75
2023/06/29 03:38:34;;;;;;;;;;;15.30;99.90;;;;;;21165614;28;20381;-76
2023/06/29 03:48:35;;;;;;;;;;;15.30;99.90;;;;;;21158167;28;19941;-75
2023/06/29 03:58:36;;;;;;;;;;;15.00;99.90;;;;;;21165206;28;19911;-75
2023/06/29 04:08:36;;;;;;;;;;;14.40;99.90;;;;;;21191192;27;19976;-75
2023/06/29 04:18:37;;;;;;;;;;;14.10;99.90;;;;;;21183992;27;19964;-76
2023/06/29 04:28:38;;;;;;;;;;;14.90;99.90;;;;;;21162242;28;19915;-76
2023/06/29 04:38:38;;;;;;;;;;;15.20;99.90;;;;;;21143620;28;19972;-75
2023/06/29 04:48:39;;;;;;;;;;;15.20;99.90;;;;;;21142625;28;19916;-75
2023/06/29 04:58:40;;;;;;;;;;;15.80;99.90;;;;;;21160221;28;19912;-75
2023/06/29 05:08:40;;;;;;;;;;;16.30;99.90;;;;;;21159366;27;19916;-76
2023/06/29 05:18:41;;;;;;;;;;;16.60;99.90;;;;;;21151133;28;19911;-76
2023/06/29 05:28:42;;;;;;;;;;;17.00;99.90;;;;;;21136326;28;20325;-75
2023/06/29 05:38:42;;;;;;;;;;;17.40;99.90;;;;;;21153100;28;19919;-75
2023/06/29 05:48:43;;;;;;;;;;;17.20;99.90;;;;;;21156397;28;19920;-76
2023/06/29 05:58:44;;;;;;;;;;;17.40;99.90;;;;;;21157156;28;19916;-76
2023/06/29 06:08:44;;;;;;;;;;;17.30;99.90;;;;;;21131037;28;19927;-76
2023/06/29 06:18:45;;;;;;;;;;;17.20;99.90;;;;;;21154992;28;19912;-76
2023/06/29 06:28:45;;;;;;;;;;;17.00;99.90;;;;;;21131869;28;20356;-75
2023/06/29 06:38:46;;;;;;;;;;;18.10;99.90;;;;;;21152585;28;19912;-75
2023/06/29 06:48:48;;;;;;;;;;;18.90;99.90;;;;;;21141768;28;19916;-75
2023/06/29 06:58:48;;;;;;;;;;;19.70;99.90;;;;;;21167664;28;19911;-76
2023/06/29 07:08:49;;;;;;;;;;;20.30;99.90;;;;;;21159945;28;19923;-76
2023/06/29 07:19:03;;;;;;;;;;;20.80;99.90;;;;;;21141947;28;19911;-75
2023/06/29 07:29:05;;;;;;;;;;;21.20;99.90;;;;;;21162901;28;19977;-75
2023/06/29 07:39:05;;;;;;;;;;;21.90;99.90;;;;;;21160920;28;20439;-76
2023/06/29 07:49:06;;;;;;;;;;;21.90;99.90;;;;;;21143339;28;19919;-76
2023/06/29 07:59:07;;;;;;;;;;;22.70;99.90;;;;;;21142699;28;19918;-76
2023/06/29 08:09:08;;;;;;;;;;;23.70;99.90;;;;;;21145420;28;20405;-75
2023/06/29 08:19:08;;;;;;;;;;;24.40;99.90;;;;;;21156305;28;19911;-75
2023/06/29 08:29:09;;;;;;;;;;;24.50;99.90;;;;;;21162969;28;19919;-75
2023/06/29 08:39:10;;;;;;;;;;;25.30;99.90;;;;;;21156570;28;20386;-74
2023/06/29 08:49:11;;;;;;;;;;;26.10;99.90;;;;;;21144649;28;19951;-76
2023/06/29 08:59:12;;;;;;;;;;;27.10;99.40;;;;;;21133117;28;19912;-75
2023/06/29 09:09:13;;;;;;;;;;;27.60;97.10;;;;;;21151580;28;20378;-75
2023/06/29 09:19:13;;;;;;;;;;;27.40;97.10;;;;;;21133108;28;19916;-75
2023/06/29 09:29:14;;;;;;;;;;;27.50;98.30;;;;;;21147525;28;19951;-75
2023/06/29 09:39:17;;;;;;;;;;;28.10;96.50;;;;;;21134148;28;20400;-75
2023/06/29 09:49:18;;;;;;;;;;;28.60;95.30;;;;;;21145079;28;19916;-74
2023/06/29 09:59:19;;;;;;;;;;;27.60;95.20;;;;;;21156722;28;20298;-75
2023/06/29 10:09:21;;;;;;;;;;;29.20;93.00;;;;;;21135487;28;19916;-76
2023/06/29 10:19:22;;;;;;;;;;;30.60;90.80;;;;;;21173559;28;19916;-75
2023/06/29 10:29:23;;;;;;;;;;;29.90;92.10;;;;;;21137375;28;19912;-75
2023/06/29 10:39:39;;;;;;;;;;;30.70;90.70;;;;;;21155292;28;19920;-75
2023/06/29 10:49:40;;;;;;;;;;;31.50;90.00;;;;;;21168776;27;19916;-75
2023/06/29 10:59:41;;;;;;;;;;;29.30;91.70;;;;;;21159706;28;19962;-75
2023/06/29 11:09:41;;;;;;;;;;;29.40;92.90;;;;;;21161480;28;19912;-75
2023/06/29 11:19:42;;;;;;;;;;;29.90;86.90;;;;;;21162081;28;19916;-75
2023/06/29 11:29:43;;;;;;;;;;;28.80;89.30;;;;;;21160250;28;20328;-75
2023/06/29 11:39:47;;;;;;;;;;;29.90;88.10;;;;;;21158343;28;20018;-75
2023/06/29 11:49:50;;;;;;;;;;;29.30;90.00;;;;;;21155550;28;20353;-75
2023/06/29 11:59:51;;;;;;;;;;;30.20;88.10;;;;;;21157284;27;19920;-75
2023/06/29 12:09:51;;;;;;;;;;;30.10;88.60;;;;;;21165065;28;20443;-76
2023/06/29 12:19:52;;;;;;;;;;;30.00;89.90;;;;;;21146354;28;19916;-76
2023/06/29 12:29:53;;;;;;;;;;;29.20;87.50;;;;;;21158765;28;19912;-76
2023/06/29 12:39:54;;;;;;;;;;;28.60;88.50;;;;;;21162254;27;19926;-76
2023/06/29 12:49:54;;;;;;;;;;;29.30;89.10;;;;;;21161630;28;19926;-77
2023/06/29 12:59:56;;;;;;;;;;;29.20;91.60;;;;;;21161348;28;19916;-77
2023/06/29 13:09:57;;;;;;;;;;;28.80;91.80;;;;;;21142543;28;20397;-76
2023/06/29 13:19:57;;;;;;;;;;;29.30;91.30;;;;;;21228405;27;19915;-76
2023/06/29 13:30:00;;;;;;;;;;;28.40;91.00;;;;;;21183097;27;20153;-76
2023/06/29 13:40:00;;;;;;;;;;;28.50;91.80;;;;;;21151819;28;19970;-76
2023/06/29 13:50:01;;;;;;;;;;;29.10;92.00;;;;;;21157151;28;19954;-76
2023/06/29 14:00:02;;;;;;;;;;;29.90;90.50;;;;;;21151965;28;20298;-77
2023/06/29 14:10:04;;;;;;;;;;;28.70;92.40;;;;;;21161725;28;20374;-75
2023/06/29 14:20:05;;;;;;;;;;;27.40;94.40;;;;;;21144135;28;19927;-76
2023/06/29 14:30:07;;;;;;;;;;;27.20;94.60;;;;;;21146945;28;19939;-76
2023/06/29 14:40:08;;;;;;;;;;;27.10;95.20;;;;;;21155795;28;19922;-76
2023/06/29 14:50:11;;;;;;;;;;;27.10;95.70;;;;;;21155359;28;20294;-76
2023/06/29 15:00:12;;;;;;;;;;;27.40;96.20;;;;;;21173464;27;19923;-75
2023/06/29 15:10:13;;;;;;;;;;;27.30;95.50;;;;;;21210503;27;20362;-75
2023/06/29 15:20:13;;;;;;;;;;;27.10;96.20;;;;;;21213662;27;19915;-76
2023/06/29 15:30:14;;;;;;;;;;;27.00;97.10;;;;;;21210094;27;19915;-76
2023/06/29 15:40:15;;;;;;;;;;;27.10;95.20;;;;;;21208283;27;19958;-75
2023/06/29 15:50:16;;;;;;;;;;;27.10;96.70;;;;;;21207069;27;20401;-75
2023/06/29 16:00:17;;;;;;;;;;;27.00;96.10;;;;;;21206566;27;20308;-75
2023/06/29 16:10:17;;;;;;;;;;;26.90;97.00;;;;;;21206238;27;19911;-75
2023/06/29 16:20:18;;;;;;;;;;;27.10;98.30;;;;;;21203584;27;19923;-74
2023/06/29 16:30:19;;;;;;;;;;;27.20;97.20;;;;;;21147988;27;19915;-74
2023/06/29 16:40:20;;;;;;;;;;;27.10;97.70;;;;;;21145718;27;19916;-72
2023/06/29 16:50:21;;;;;;;;;;;27.20;98.20;;;;;;21142311;28;19923;-74
2023/06/29 17:00:21;;;;;;;;;;;27.30;99.50;;;;;;21154782;28;19915;-74
2023/06/29 17:10:22;;;;;;;;;;;27.20;97.70;;;;;;21160169;27;19948;-75
2023/06/29 17:20:22;;;;;;;;;;;27.00;98.70;;;;;;21075626;28;19916;-74
2023/06/29 17:30:23;;;;;;;;;;;26.60;99.70;;;;;;21158775;27;19911;-74
2023/06/29 17:40:24;;;;;;;;;;;26.60;99.90;;;;;;21142492;28;19923;-75
2023/06/29 17:50:24;;;;;;;;;;;26.30;99.90;;;;;;21140859;28;19919;-74
2023/06/29 18:00:25;;;;;;;;;;;26.10;99.90;;;;;;21151821;28;20349;-75
2023/06/29 18:10:26;;;;;;;;;;;26.00;99.90;;;;;;21148972;28;19947;-75
2023/06/29 18:20:26;;;;;;;;;;;25.20;99.90;;;;;;21144844;28;20493;-74
2023/06/29 18:30:28;;;;;;;;;;;24.80;99.90;;;;;;21156623;28;20289;-74
2023/06/29 18:40:29;;;;;;;;;;;24.40;99.90;;;;;;21178850;27;19922;-72
2023/06/29 18:50:29;;;;;;;;;;;24.00;99.90;;;;;;21247554;27;19915;-75
2023/06/29 19:00:30;;;;;;;;;;;23.60;99.90;;;;;;21227757;27;19951;-74
2023/06/29 19:10:31;;;;;;;;;;;23.60;99.90;;;;;;21197537;27;19965;-74
2023/06/29 19:20:31;;;;;;;;;;;23.90;99.90;;;;;;21174291;27;20405;-75
2023/06/29 19:30:32;;;;;;;;;;;23.80;99.90;;;;;;21160193;27;19926;-74
2023/06/29 19:40:33;;;;;;;;;;;23.50;99.90;;;;;;21209138;27;19923;-74
2023/06/29 19:50:34;;;;;;;;;;;23.30;99.90;;;;;;21207501;27;19919;-74
2023/06/29 20:00:35;;;;;;;;;;;23.30;99.90;;;;;;21205609;27;19988;-75
2023/06/29 20:10:38;;;;;;;;;;;23.20;99.90;;;;;;21206126;27;19911;-75
2023/06/29 20:20:39;;;;;;;;;;;22.70;99.90;;;;;;21188058;27;20496;-75
2023/06/29 20:30:39;;;;;;;;;;;22.80;99.90;;;;;;21163059;28;19991;-75
2023/06/29 20:40:41;;;;;;;;;;;22.20;99.90;;;;;;21162537;28;19915;-75
2023/06/29 20:50:42;;;;;;;;;;;22.40;99.90;;;;;;21161550;28;19968;-74
2023/06/29 21:00:45;;;;;;;;;;;22.40;99.90;;;;;;21160687;28;19923;-75
2023/06/29 21:10:46;;;;;;;;;;;22.40;99.90;;;;;;21160253;28;19912;-75
2023/06/29 21:20:47;;;;;;;;;;;22.30;99.90;;;;;;21154993;28;19922;-75
2023/06/29 21:30:47;;;;;;;;;;;22.00;99.90;;;;;;21152797;28;19954;-74
2023/06/29 21:40:48;;;;;;;;;;;21.80;99.90;;;;;;21154963;28;19923;-75
2023/06/29 21:50:49;;;;;;;;;;;21.70;99.90;;;;;;21145968;28;20446;-74
2023/06/29 22:00:49;;;;;;;;;;;21.30;99.90;;;;;;21153447;28;19963;-74
2023/06/29 22:10:50;;;;;;;;;;;21.10;99.90;;;;;;21166586;28;19912;-74
2023/06/29 22:20:51;;;;;;;;;;;21.00;99.90;;;;;;21173647;28;19938;-74
2023/06/29 22:30:52;;;;;;;;;;;20.90;99.90;;;;;;21173291;28;19912;-74
2023/06/29 22:40:52;;;;;;;;;;;20.50;99.90;;;;;;21172367;28;20011;-75
2023/06/29 22:50:55;;;;;;;;;;;20.00;99.90;;;;;;21172045;28;19962;-74
2023/06/29 23:00:56;;;;;;;;;;;19.80;99.90;;;;;;21171393;28;19941;-75
2023/06/29 23:10:56;;;;;;;;;;;19.90;99.90;;;;;;21170101;28;19958;-75
2023/06/29 23:21:02;;;;;;;;;;;19.90;99.90;;;;;;21169283;28;19916;-74
2023/06/29 23:31:02;;;;;;;;;;;20.10;99.90;;;;;;21168877;28;20344;-74
2023/06/29 23:41:03;;;;;;;;;;;19.80;99.90;;;;;;21167881;28;19924;-74
2023/06/29 23:51:04;;;;;;;;;;;19.50;99.90;;;;;;21167388;28;19969;-74
